Time;durP1;ratioP1;P1;durP2;ratioP2;P2;SDS_P1;SDS_P2;PMS_P1;PMS_P2;Temp;Humidity;BMP_temperature;BMP_pressure;BME280_temperature;BME280_humidity;BME280_pressure;Samples;Min_cycle;Max_cycle;Signal;HPM_P1;HPM_P2
2021/09/26 00:02:16;;;;;;;30.33;10.00;;;;;;;;;;4440893;32;20246;-54
2021/09/26 00:04:41;;;;;;;15.45;9.18;;;;;;;;;;4447358;32;20208;-55
2021/09/26 00:07:07;;;;;;;14.85;8.05;;;;;;;;;;4447131;32;20249;-54
2021/09/26 00:09:33;;;;;;;16.62;8.23;;;;;;;;;;4446939;32;20275;-55
2021/09/26 00:11:58;;;;;;;13.48;6.57;;;;;;;;;;4449645;32;20540;-53
2021/09/26 00:14:24;;;;;;;10.23;6.65;;;;;;;;;;4450105;32;20280;-54
2021/09/26 00:16:50;;;;;;;10.50;7.03;;;;;;;;;;4449855;32;20216;-52
2021/09/26 00:19:15;;;;;;;11.25;7.03;;;;;;;;;;4450050;32;20292;-54
2021/09/26 00:21:40;;;;;;;10.18;6.20;;;;;;;;;;4450222;32;20296;-53
2021/09/26 00:24:06;;;;;;;8.90;5.65;;;;;;;;;;4449951;32;20774;-53
2021/09/26 00:26:31;;;;;;;8.50;5.15;;;;;;;;;;4450402;32;20232;-53
2021/09/26 00:28:57;;;;;;;14.32;5.55;;;;;;;;;;4450137;32;20275;-53
2021/09/26 00:31:22;;;;;;;10.23;5.90;;;;;;;;;;4448987;32;20931;-55
2021/09/26 00:33:48;;;;;;;8.70;6.20;;;;;;;;;;4439852;32;20789;-53
2021/09/26 00:36:13;;;;;;;11.20;7.03;;;;;;;;;;4450171;32;20298;-54
2021/09/26 00:38:39;;;;;;;11.65;7.18;;;;;;;;;;4450063;32;20279;-53
2021/09/26 00:41:04;;;;;;;12.35;9.00;;;;;;;;;;4449781;32;20224;-54
2021/09/26 00:43:30;;;;;;;19.67;10.00;;;;;;;;;;4450094;32;20314;-55
2021/09/26 00:45:55;;;;;;;18.35;11.85;;;;;;;;;;4449731;32;20221;-53
2021/09/26 00:48:21;;;;;;;21.58;13.62;;;;;;;;;;4450189;32;20398;-55
2021/09/26 00:50:46;;;;;;;19.37;10.65;;;;;;;;;;4449648;32;20580;-54
2021/09/26 00:53:12;;;;;;;14.43;9.07;;;;;;;;;;4449633;32;20294;-53
2021/09/26 00:55:38;;;;;;;11.95;8.55;;;;;;;;;;4449497;32;20314;-54
2021/09/26 00:58:04;;;;;;;15.02;8.07;;;;;;;;;;4449530;32;20337;-55
2021/09/26 01:00:29;;;;;;;12.98;8.65;;;;;;;;;;4449612;32;20283;-53
2021/09/26 01:02:55;;;;;;;12.70;7.95;;;;;;;;;;4449103;32;20331;-53
2021/09/26 01:05:23;;;;;;;10.48;6.70;;;;;;;;;;4449412;32;20216;-54
2021/09/26 01:08:07;;;;;;;18.35;7.95;;;;;;;;;;4449611;32;20201;-54
2021/09/26 01:10:59;;;;;;;16.27;8.05;;;;;;;;;;4449269;32;20682;-53
2021/09/26 01:13:33;;;;;;;11.05;7.50;;;;;;;;;;4450003;32;20235;-53
2021/09/26 01:16:16;;;;;;;10.98;7.45;;;;;;;;;;4449550;32;20229;-53
2021/09/26 01:18:47;;;;;;;10.95;6.97;;;;;;;;;;4449757;32;20219;-54
2021/09/26 01:21:25;;;;;;;11.23;7.40;;;;;;;;;;4449304;32;20287;-53
2021/09/26 01:24:19;;;;;;;15.13;8.27;;;;;;;;;;4448762;32;20279;-54
2021/09/26 01:27:01;;;;;;;10.43;6.50;;;;;;;;;;4449548;32;20730;-53
2021/09/26 01:29:54;;;;;;;10.70;6.80;;;;;;;;;;4449557;32;20494;-53
2021/09/26 01:32:22;;;;;;;10.77;7.15;;;;;;;;;;4448780;32;20404;-53
2021/09/26 01:34:55;;;;;;;13.88;7.40;;;;;;;;;;4449328;32;20212;-53
2021/09/26 01:37:48;;;;;;;11.77;7.68;;;;;;;;;;4448938;32;20315;-53
2021/09/26 01:40:25;;;;;;;15.60;8.38;;;;;;;;;;4443645;32;20251;-53
2021/09/26 01:42:55;;;;;;;18.58;11.68;;;;;;;;;;4448916;32;20729;-52
2021/09/26 01:45:32;;;;;;;16.02;9.82;;;;;;;;;;4449211;32;20285;-54
2021/09/26 01:48:09;;;;;;;10.98;7.95;;;;;;;;;;4448822;32;20208;-54
2021/09/26 01:50:36;;;;;;;10.98;7.20;;;;;;;;;;4449076;32;20318;-54
2021/09/26 01:53:04;;;;;;;9.40;6.12;;;;;;;;;;4449040;32;20288;-53
2021/09/26 01:55:30;;;;;;;8.85;6.55;;;;;;;;;;4448949;32;20236;-53
2021/09/26 01:57:58;;;;;;;18.30;8.43;;;;;;;;;;4448920;32;20240;-54
2021/09/26 02:00:23;;;;;;;15.18;9.15;;;;;;;;;;4448399;32;20262;-53
2021/09/26 02:02:50;;;;;;;16.05;9.73;;;;;;;;;;4448111;32;20299;-53
2021/09/26 02:05:18;;;;;;;19.27;11.52;;;;;;;;;;4448303;32;20251;-54
2021/09/26 02:07:47;;;;;;;15.43;10.65;;;;;;;;;;4448466;32;20483;-53
2021/09/26 02:10:14;;;;;;;17.00;10.05;;;;;;;;;;4448333;32;20308;-52
2021/09/26 02:12:40;;;;;;;16.33;10.52;;;;;;;;;;4448463;32;20267;-53
2021/09/26 02:15:10;;;;;;;18.70;9.93;;;;;;;;;;4448589;32;20279;-53
2021/09/26 02:17:37;;;;;;;14.07;8.18;;;;;;;;;;4448148;32;20254;-53
2021/09/26 02:20:04;;;;;;;26.17;10.23;;;;;;;;;;4447212;32;21073;-52
2021/09/26 02:22:35;;;;;;;21.77;11.52;;;;;;;;;;4448341;32;20208;-53
2021/09/26 02:25:05;;;;;;;46.80;29.85;;;;;;;;;;4447987;32;20626;-53
2021/09/26 02:27:31;;;;;;;60.65;31.58;;;;;;;;;;4448197;32;20280;-53
2021/09/26 02:29:57;;;;;;;58.45;31.25;;;;;;;;;;4448225;32;20279;-54
2021/09/26 02:32:23;;;;;;;73.40;34.45;;;;;;;;;;4448217;32;20624;-53
2021/09/26 02:34:48;;;;;;;57.35;33.03;;;;;;;;;;4448036;32;20291;-55
2021/09/26 02:37:14;;;;;;;50.60;26.42;;;;;;;;;;4448392;32;20255;-54
2021/09/26 02:39:40;;;;;;;55.58;28.48;;;;;;;;;;4446989;32;20338;-53
2021/09/26 02:42:24;;;;;;;47.70;26.62;;;;;;;;;;4447910;32;20538;-54
2021/09/26 02:45:37;;;;;;;42.62;22.13;;;;;;;;;;4448161;32;20280;-53
2021/09/26 02:48:08;;;;;;;40.88;22.13;;;;;;;;;;4442473;32;20232;-53
2021/09/26 02:50:34;;;;;;;36.13;20.50;;;;;;;;;;4446640;32;20336;-53
2021/09/26 02:53:02;;;;;;;30.17;19.10;;;;;;;;;;4447674;32;20631;-54
2021/09/26 02:55:29;;;;;;;33.70;18.45;;;;;;;;;;4448054;32;20271;-52
2021/09/26 02:57:55;;;;;;;30.27;18.20;;;;;;;;;;4447981;32;20266;-53
2021/09/26 03:00:20;;;;;;;48.20;21.05;;;;;;;;;;4447709;32;20216;-53
2021/09/26 03:02:46;;;;;;;33.38;18.20;;;;;;;;;;4447136;32;20321;-54
2021/09/26 03:05:12;;;;;;;35.22;19.55;;;;;;;;;;4447909;32;20279;-53
2021/09/26 03:07:37;;;;;;;35.05;18.05;;;;;;;;;;4448012;32;20192;-53
2021/09/26 03:10:06;;;;;;;40.42;21.02;;;;;;;;;;4447527;32;20283;-53
2021/09/26 03:12:34;;;;;;;39.08;21.70;;;;;;;;;;4447594;32;20220;-53
2021/09/26 03:14:59;;;;;;;32.20;19.23;;;;;;;;;;4447306;32;20250;-53
2021/09/26 03:17:25;;;;;;;37.80;20.83;;;;;;;;;;4447722;32;20240;-54
2021/09/26 03:19:50;;;;;;;33.65;19.42;;;;;;;;;;4447600;32;20708;-53
2021/09/26 03:22:16;;;;;;;38.30;19.10;;;;;;;;;;4447406;32;20212;-52
2021/09/26 03:24:42;;;;;;;36.47;18.83;;;;;;;;;;4446549;32;20315;-55
2021/09/26 03:27:12;;;;;;;42.08;20.42;;;;;;;;;;4447653;32;20228;-53
2021/09/26 03:29:41;;;;;;;31.85;18.98;;;;;;;;;;4447465;32;20192;-53
2021/09/26 03:32:08;;;;;;;36.35;19.25;;;;;;;;;;4447263;32;20259;-53
2021/09/26 03:34:33;;;;;;;37.45;21.77;;;;;;;;;;4446455;32;20224;-54
2021/09/26 03:36:59;;;;;;;42.85;21.67;;;;;;;;;;4447596;32;20258;-53
2021/09/26 03:39:24;;;;;;;35.30;21.55;;;;;;;;;;4448183;32;20268;-53
2021/09/26 03:41:50;;;;;;;31.98;19.20;;;;;;;;;;4447225;32;20265;-53
2021/09/26 03:44:15;;;;;;;35.58;20.05;;;;;;;;;;4447474;32;20310;-53
2021/09/26 03:46:41;;;;;;;36.20;20.35;;;;;;;;;;4449461;32;20410;-53
2021/09/26 03:49:06;;;;;;;41.85;23.17;;;;;;;;;;4450809;32;20358;-53
2021/09/26 03:51:32;;;;;;;43.78;23.58;;;;;;;;;;4450497;32;20261;-53
2021/09/26 03:53:58;;;;;;;66.43;28.45;;;;;;;;;;4450229;32;20687;-54
2021/09/26 03:56:23;;;;;;;57.58;33.50;;;;;;;;;;4450308;32;20237;-53
2021/09/26 03:58:49;;;;;;;51.88;31.50;;;;;;;;;;4450767;32;20322;-53
2021/09/26 04:01:14;;;;;;;63.65;32.60;;;;;;;;;;4449802;32;20224;-53
2021/09/26 04:03:40;;;;;;;54.28;29.00;;;;;;;;;;4450552;32;20752;-54
2021/09/26 04:06:09;;;;;;;50.75;27.25;;;;;;;;;;4450209;32;20331;-54
2021/09/26 04:08:36;;;;;;;48.60;26.77;;;;;;;;;;4450043;32;20253;-54
2021/09/26 04:11:01;;;;;;;46.65;22.37;;;;;;;;;;4450294;32;20313;-54
2021/09/26 04:13:27;;;;;;;34.75;17.77;;;;;;;;;;4450703;32;20316;-54
2021/09/26 04:15:52;;;;;;;22.40;13.68;;;;;;;;;;4450317;32;20284;-54
2021/09/26 04:18:18;;;;;;;31.98;12.43;;;;;;;;;;4450201;32;20293;-54
2021/09/26 04:20:43;;;;;;;23.27;11.77;;;;;;;;;;4450192;32;20354;-54
2021/09/26 04:23:09;;;;;;;26.08;12.35;;;;;;;;;;4450315;32;20372;-54
2021/09/26 04:25:34;;;;;;;18.70;10.55;;;;;;;;;;4450280;32;20220;-54
2021/09/26 04:28:00;;;;;;;28.15;15.80;;;;;;;;;;4450410;32;20362;-54
2021/09/26 04:30:25;;;;;;;24.10;13.87;;;;;;;;;;4449994;32;20808;-53
2021/09/26 04:32:51;;;;;;;26.92;15.15;;;;;;;;;;4449925;32;20658;-53
2021/09/26 04:35:16;;;;;;;38.17;17.65;;;;;;;;;;4450259;32;20324;-54
2021/09/26 04:37:42;;;;;;;35.03;18.02;;;;;;;;;;4449748;32;20212;-53
2021/09/26 04:40:08;;;;;;;40.83;20.63;;;;;;;;;;4449905;32;20346;-54
2021/09/26 04:42:33;;;;;;;46.22;25.00;;;;;;;;;;4449907;32;20220;-54
2021/09/26 04:44:59;;;;;;;53.87;29.83;;;;;;;;;;4449781;32;20671;-54
2021/09/26 04:47:25;;;;;;;42.25;25.80;;;;;;;;;;4449787;32;20672;-55
2021/09/26 04:49:50;;;;;;;63.00;33.20;;;;;;;;;;4450067;32;20296;-55
2021/09/26 04:52:16;;;;;;;55.72;30.37;;;;;;;;;;4449496;32;20220;-54
2021/09/26 04:54:41;;;;;;;46.28;25.27;;;;;;;;;;4449668;32;20582;-56
2021/09/26 04:57:07;;;;;;;56.13;25.98;;;;;;;;;;4449471;32;20295;-53
2021/09/26 04:59:32;;;;;;;46.90;23.87;;;;;;;;;;4449576;32;20716;-54
2021/09/26 05:01:58;;;;;;;46.83;23.00;;;;;;;;;;4449133;32;20712;-53
2021/09/26 05:04:23;;;;;;;43.58;24.65;;;;;;;;;;4449588;32;20310;-53
2021/09/26 05:06:49;;;;;;;53.03;25.33;;;;;;;;;;4448023;32;20319;-53
2021/09/26 05:09:14;;;;;;;38.13;21.98;;;;;;;;;;4449673;32;20310;-55
2021/09/26 05:11:40;;;;;;;44.13;23.00;;;;;;;;;;4449291;32;20295;-53
2021/09/26 05:14:05;;;;;;;38.33;22.03;;;;;;;;;;4449275;32;20711;-53
2021/09/26 05:16:32;;;;;;;41.80;22.73;;;;;;;;;;4449432;32;20386;-53
2021/09/26 05:18:58;;;;;;;38.80;22.50;;;;;;;;;;4449270;32;20230;-54
2021/09/26 05:21:23;;;;;;;38.45;22.20;;;;;;;;;;4449446;32;20347;-54
2021/09/26 05:23:49;;;;;;;45.90;22.25;;;;;;;;;;4449193;32;20798;-54
2021/09/26 05:26:16;;;;;;;36.13;20.87;;;;;;;;;;4449491;32;20249;-54
2021/09/26 05:28:43;;;;;;;31.42;19.75;;;;;;;;;;4449299;32;20255;-54
2021/09/26 05:31:08;;;;;;;36.42;20.23;;;;;;;;;;4449094;32;20240;-54
2021/09/26 05:33:34;;;;;;;39.05;21.70;;;;;;;;;;4449009;32;20339;-54
2021/09/26 05:35:59;;;;;;;33.47;19.60;;;;;;;;;;4449021;32;20248;-54
2021/09/26 05:38:25;;;;;;;35.20;19.83;;;;;;;;;;4448987;32;20352;-54
2021/09/26 05:40:51;;;;;;;41.50;20.33;;;;;;;;;;4449043;32;20347;-54
2021/09/26 05:43:16;;;;;;;39.45;19.83;;;;;;;;;;4449111;32;20550;-56
2021/09/26 05:45:42;;;;;;;33.13;19.00;;;;;;;;;;4448814;32;20246;-54
2021/09/26 05:48:07;;;;;;;27.23;15.35;;;;;;;;;;4448465;32;20734;-55
2021/09/26 05:50:33;;;;;;;35.65;17.25;;;;;;;;;;4447137;32;20342;-53
2021/09/26 05:52:59;;;;;;;28.87;16.98;;;;;;;;;;4439755;32;20810;-53
2021/09/26 05:55:24;;;;;;;28.80;17.37;;;;;;;;;;4443383;32;20221;-52
2021/09/26 05:57:50;;;;;;;29.50;15.98;;;;;;;;;;4433697;32;20283;-53
2021/09/26 06:00:17;;;;;;;23.23;14.75;;;;;;;;;;4436581;32;20303;-53
2021/09/26 06:02:44;;;;;;;24.25;14.32;;;;;;;;;;4445162;32;20235;-53
2021/09/26 06:05:11;;;;;;;35.35;18.08;;;;;;;;;;4448380;32;20212;-53
2021/09/26 06:07:37;;;;;;;32.20;17.25;;;;;;;;;;4446701;32;20228;-52
2021/09/26 06:10:04;;;;;;;26.55;15.82;;;;;;;;;;4432743;32;20235;-53
2021/09/26 06:12:29;;;;;;;30.40;16.50;;;;;;;;;;4432869;32;20539;-53
2021/09/26 06:14:55;;;;;;;32.25;17.05;;;;;;;;;;4432853;32;20368;-53
2021/09/26 06:17:20;;;;;;;33.63;16.83;;;;;;;;;;4432854;32;20372;-54
2021/09/26 06:19:45;;;;;;;32.88;18.65;;;;;;;;;;4439017;32;20396;-54
2021/09/26 06:22:11;;;;;;;35.38;18.20;;;;;;;;;;4447854;32;20291;-54
2021/09/26 06:24:36;;;;;;;37.25;17.75;;;;;;;;;;4448036;32;20653;-54
2021/09/26 06:27:02;;;;;;;38.95;17.60;;;;;;;;;;4448109;32;20255;-54
2021/09/26 06:29:28;;;;;;;29.90;18.33;;;;;;;;;;4447930;32;20267;-55
2021/09/26 06:31:53;;;;;;;32.75;17.65;;;;;;;;;;4448038;32;20304;-54
2021/09/26 06:34:19;;;;;;;31.83;17.23;;;;;;;;;;4431980;32;20359;-54
2021/09/26 06:36:44;;;;;;;33.80;17.10;;;;;;;;;;4434398;32;20328;-52
2021/09/26 06:39:11;;;;;;;32.80;16.12;;;;;;;;;;4447828;32;20295;-53
2021/09/26 06:41:37;;;;;;;27.35;15.68;;;;;;;;;;4447964;32;20257;-52
2021/09/26 06:44:03;;;;;;;30.60;15.75;;;;;;;;;;4447738;32;20348;-54
2021/09/26 06:46:29;;;;;;;24.75;14.57;;;;;;;;;;4447992;32;20227;-54
2021/09/26 06:48:54;;;;;;;25.27;16.15;;;;;;;;;;4447779;32;20607;-54
2021/09/26 06:51:20;;;;;;;30.70;16.30;;;;;;;;;;4447785;32;20268;-53
2021/09/26 06:53:45;;;;;;;23.95;13.13;;;;;;;;;;4447830;32;20357;-55
2021/09/26 06:56:10;;;;;;;26.27;13.43;;;;;;;;;;4447458;32;20272;-54
2021/09/26 06:58:36;;;;;;;21.75;13.25;;;;;;;;;;4446648;32;20243;-54
2021/09/26 07:01:03;;;;;;;27.50;14.50;;;;;;;;;;4447246;32;20274;-54
2021/09/26 07:03:28;;;;;;;28.38;15.10;;;;;;;;;;4447779;32;20672;-53
2021/09/26 07:05:54;;;;;;;26.90;14.90;;;;;;;;;;4447641;32;20250;-53
2021/09/26 07:08:19;;;;;;;24.95;14.25;;;;;;;;;;4447817;32;20313;-54
2021/09/26 07:10:44;;;;;;;20.52;11.30;;;;;;;;;;4447529;32;20739;-53
2021/09/26 07:13:10;;;;;;;19.67;12.68;;;;;;;;;;4447576;32;20757;-54
2021/09/26 07:15:35;;;;;;;19.60;10.63;;;;;;;;;;4447424;32;20224;-53
2021/09/26 07:18:02;;;;;;;21.45;11.98;;;;;;;;;;4447518;32;20267;-54
2021/09/26 07:20:28;;;;;;;35.03;13.95;;;;;;;;;;4445568;32;20220;-54
2021/09/26 07:22:58;;;;;;;17.12;10.15;;;;;;;;;;4447280;32;20236;-53
2021/09/26 07:25:26;;;;;;;25.55;11.40;;;;;;;;;;4447679;32;20274;-54
2021/09/26 07:27:51;;;;;;;23.45;10.13;;;;;;;;;;4447749;32;20335;-53
2021/09/26 07:30:17;;;;;;;22.70;9.95;;;;;;;;;;4447442;32;20280;-53
2021/09/26 07:32:42;;;;;;;13.48;9.25;;;;;;;;;;4447112;32;20275;-54
2021/09/26 07:35:08;;;;;;;29.42;10.63;;;;;;;;;;4447588;32;20301;-54
2021/09/26 07:37:34;;;;;;;17.83;9.82;;;;;;;;;;4445993;32;20699;-54
2021/09/26 07:39:59;;;;;;;19.98;9.13;;;;;;;;;;4447320;32;20291;-54
2021/09/26 07:42:25;;;;;;;28.50;10.43;;;;;;;;;;4447381;32;20296;-54
2021/09/26 07:44:50;;;;;;;14.70;9.13;;;;;;;;;;4447421;32;20722;-52
2021/09/26 07:47:16;;;;;;;18.55;10.23;;;;;;;;;;4447383;32;20705;-53
2021/09/26 07:49:41;;;;;;;16.87;8.98;;;;;;;;;;4447442;32;20276;-53
2021/09/26 07:52:07;;;;;;;18.25;9.43;;;;;;;;;;4447004;32;20232;-55
2021/09/26 07:54:32;;;;;;;17.77;9.07;;;;;;;;;;4447342;32;20305;-55
2021/09/26 07:56:59;;;;;;;12.80;7.68;;;;;;;;;;4447257;32;20224;-54
2021/09/26 07:59:24;;;;;;;17.40;9.45;;;;;;;;;;4447335;32;20231;-54
2021/09/26 08:01:50;;;;;;;16.10;8.18;;;;;;;;;;4439711;32;20307;-54
2021/09/26 08:04:16;;;;;;;12.88;8.02;;;;;;;;;;4431047;32;20323;-54
2021/09/26 08:06:42;;;;;;;11.85;7.65;;;;;;;;;;4432007;32;20312;-54
2021/09/26 08:09:07;;;;;;;14.77;8.20;;;;;;;;;;4431627;32;20283;-55
2021/09/26 08:11:33;;;;;;;17.33;8.18;;;;;;;;;;4430841;32;20225;-54
2021/09/26 08:13:58;;;;;;;17.00;9.02;;;;;;;;;;4431939;32;20344;-55
2021/09/26 08:16:24;;;;;;;18.92;10.50;;;;;;;;;;4432114;32;20375;-56
2021/09/26 08:18:49;;;;;;;20.30;10.27;;;;;;;;;;4431943;32;20295;-56
2021/09/26 08:21:16;;;;;;;15.32;9.75;;;;;;;;;;4431696;32;20237;-54
2021/09/26 08:23:41;;;;;;;19.40;10.30;;;;;;;;;;4431744;32;20303;-55
2021/09/26 08:26:07;;;;;;;14.50;9.05;;;;;;;;;;4430367;32;20645;-53
2021/09/26 08:28:33;;;;;;;17.80;9.82;;;;;;;;;;4431645;32;20272;-54
2021/09/26 08:30:59;;;;;;;15.20;9.27;;;;;;;;;;4431972;32;20549;-53
2021/09/26 08:33:25;;;;;;;13.95;9.07;;;;;;;;;;4443558;32;20220;-55
2021/09/26 08:35:50;;;;;;;15.52;8.55;;;;;;;;;;4450084;32;20311;-54
2021/09/26 08:38:16;;;;;;;19.65;10.85;;;;;;;;;;4459370;32;20790;-53
2021/09/26 08:40:41;;;;;;;15.70;9.20;;;;;;;;;;4465571;32;20311;-54
2021/09/26 08:43:09;;;;;;;16.83;9.00;;;;;;;;;;4465024;32;20639;-54
2021/09/26 08:45:38;;;;;;;17.92;8.75;;;;;;;;;;4465452;32;20303;-53
2021/09/26 08:48:05;;;;;;;12.65;7.37;;;;;;;;;;4465471;32;20208;-54
2021/09/26 08:50:31;;;;;;;13.60;7.93;;;;;;;;;;4458788;32;20698;-54
2021/09/26 08:52:57;;;;;;;11.57;7.35;;;;;;;;;;4449296;32;20263;-54
2021/09/26 08:55:23;;;;;;;15.90;8.07;;;;;;;;;;4450081;32;20260;-54
2021/09/26 08:57:48;;;;;;;13.18;7.18;;;;;;;;;;4449614;32;20235;-54
2021/09/26 09:00:16;;;;;;;15.20;8.90;;;;;;;;;;4449325;32;20267;-53
2021/09/26 09:02:42;;;;;;;14.05;9.57;;;;;;;;;;4436281;32;20354;-54
2021/09/26 09:05:26;;;;;;;19.02;11.10;;;;;;;;;;4433437;32;20267;-54
2021/09/26 09:08:12;;;;;;;17.87;10.68;;;;;;;;;;4434413;32;20201;-54
2021/09/26 09:10:39;;;;;;;18.67;9.50;;;;;;;;;;4434513;32;20331;-53
2021/09/26 09:13:05;;;;;;;16.48;9.73;;;;;;;;;;4434039;32;20638;-55
2021/09/26 09:15:31;;;;;;;15.13;8.15;;;;;;;;;;4434179;32;20689;-54
2021/09/26 09:18:01;;;;;;;17.75;9.40;;;;;;;;;;4434163;32;20691;-53
2021/09/26 09:20:28;;;;;;;14.52;7.18;;;;;;;;;;4434184;32;20649;-54
2021/09/26 09:23:13;;;;;;;10.07;6.28;;;;;;;;;;4434019;32;20382;-54
2021/09/26 09:25:48;;;;;;;14.87;7.05;;;;;;;;;;4433911;32;20312;-53
2021/09/26 09:28:18;;;;;;;11.35;7.47;;;;;;;;;;4433863;32;20229;-54
2021/09/26 09:30:49;;;;;;;11.32;7.03;;;;;;;;;;4433823;32;20381;-55
2021/09/26 09:33:16;;;;;;;11.10;6.47;;;;;;;;;;4448953;32;20648;-55
2021/09/26 09:35:42;;;;;;;13.20;5.95;;;;;;;;;;4464666;32;20254;-54
2021/09/26 09:38:08;;;;;;;9.48;5.22;;;;;;;;;;4464393;32;20339;-54
2021/09/26 09:40:35;;;;;;;9.00;5.15;;;;;;;;;;4464725;32;20711;-54
2021/09/26 09:43:00;;;;;;;10.25;6.10;;;;;;;;;;4463313;32;20224;-55
2021/09/26 09:45:29;;;;;;;9.55;5.62;;;;;;;;;;4464475;32;20227;-53
2021/09/26 09:48:09;;;;;;;13.23;6.87;;;;;;;;;;4448534;32;20240;-54
2021/09/26 09:50:34;;;;;;;9.43;6.20;;;;;;;;;;4447891;32;20283;-54
2021/09/26 09:53:00;;;;;;;11.30;6.60;;;;;;;;;;4448225;32;20351;-54
2021/09/26 09:55:28;;;;;;;10.82;6.57;;;;;;;;;;4440555;32;20232;-55
2021/09/26 09:58:09;;;;;;;8.95;6.25;;;;;;;;;;4440413;32;20216;-54
2021/09/26 10:00:46;;;;;;;13.80;7.45;;;;;;;;;;4446431;32;20672;-54
2021/09/26 10:03:50;;;;;;;9.90;6.62;;;;;;;;;;4433273;32;20626;-54
2021/09/26 10:06:28;;;;;;;14.75;7.82;;;;;;;;;;4433467;32;20437;-54
2021/09/26 10:08:55;;;;;;;11.23;7.32;;;;;;;;;;4433374;32;20297;-54
2021/09/26 10:11:21;;;;;;;16.98;8.77;;;;;;;;;;4434282;32;20353;-54
2021/09/26 10:13:47;;;;;;;17.35;7.80;;;;;;;;;;4448632;32;20275;-55
2021/09/26 10:16:13;;;;;;;12.23;6.90;;;;;;;;;;4448398;32;20227;-54
2021/09/26 10:18:42;;;;;;;14.20;7.47;;;;;;;;;;4447925;32;20281;-55
2021/09/26 10:21:09;;;;;;;10.18;6.60;;;;;;;;;;4448164;32;20235;-54
2021/09/26 10:23:35;;;;;;;17.85;7.82;;;;;;;;;;4448647;32;20205;-54
2021/09/26 10:26:01;;;;;;;13.82;5.68;;;;;;;;;;4448380;32;21205;-54
2021/09/26 10:28:29;;;;;;;12.60;7.55;;;;;;;;;;4447675;32;20366;-54
2021/09/26 10:30:57;;;;;;;10.40;6.68;;;;;;;;;;4447181;32;20264;-54
2021/09/26 10:33:26;;;;;;;11.60;5.53;;;;;;;;;;4445573;32;20246;-56
2021/09/26 10:35:54;;;;;;;8.63;5.30;;;;;;;;;;4447477;32;20327;-55
2021/09/26 10:38:20;;;;;;;8.85;4.37;;;;;;;;;;4447885;32;20260;-54
2021/09/26 10:40:46;;;;;;;13.50;6.45;;;;;;;;;;4446960;32;20707;-54
2021/09/26 10:43:29;;;;;;;6.50;5.12;;;;;;;;;;4446112;32;20331;-55
2021/09/26 10:46:16;;;;;;;9.18;5.45;;;;;;;;;;4444807;32;20320;-53
2021/09/26 10:49:15;;;;;;;9.95;4.45;;;;;;;;;;4446799;32;20670;-54
2021/09/26 10:51:54;;;;;;;8.75;4.15;;;;;;;;;;4444957;32;20224;-54
2021/09/26 10:54:25;;;;;;;9.00;5.32;;;;;;;;;;4445702;32;20275;-55
2021/09/26 10:57:03;;;;;;;10.68;4.47;;;;;;;;;;4445455;32;20309;-54
2021/09/26 10:59:46;;;;;;;5.90;3.67;;;;;;;;;;4436154;32;20263;-54
2021/09/26 11:02:20;;;;;;;9.73;4.97;;;;;;;;;;4444945;32;20340;-54
2021/09/26 11:04:47;;;;;;;5.05;3.78;;;;;;;;;;4445454;32;20929;-53
2021/09/26 11:07:17;;;;;;;6.28;3.42;;;;;;;;;;4447061;32;20240;-54
2021/09/26 11:09:56;;;;;;;6.00;3.25;;;;;;;;;;4445075;32;20695;-55
2021/09/26 11:12:45;;;;;;;5.40;3.70;;;;;;;;;;4446383;32;20259;-54
2021/09/26 11:15:13;;;;;;;5.28;3.25;;;;;;;;;;4437877;32;20682;-54
2021/09/26 11:17:43;;;;;;;3.45;2.72;;;;;;;;;;4436973;32;20313;-54
2021/09/26 11:20:11;;;;;;;5.53;3.05;;;;;;;;;;4438288;32;20221;-54
2021/09/26 11:22:37;;;;;;;7.07;2.22;;;;;;;;;;4438592;32;20546;-54
2021/09/26 11:25:03;;;;;;;2.92;2.35;;;;;;;;;;4437509;32;20761;-55
2021/09/26 11:27:34;;;;;;;4.22;2.55;;;;;;;;;;4444611;32;20629;-54
2021/09/26 11:30:06;;;;;;;5.28;2.30;;;;;;;;;;4446871;32;20208;-55
2021/09/26 11:32:33;;;;;;;7.68;2.60;;;;;;;;;;4444848;32;20314;-55
2021/09/26 11:35:23;;;;;;;4.03;2.47;;;;;;;;;;4446794;32;20267;-55
2021/09/26 11:37:53;;;;;;;4.00;2.75;;;;;;;;;;4440542;32;20307;-55
2021/09/26 11:40:20;;;;;;;3.78;2.42;;;;;;;;;;4445974;32;20367;-56
2021/09/26 11:42:54;;;;;;;4.57;2.28;;;;;;;;;;4447165;32;20365;-54
2021/09/26 11:45:29;;;;;;;2.70;1.90;;;;;;;;;;4447709;32;20220;-54
2021/09/26 11:48:02;;;;;;;4.57;2.62;;;;;;;;;;4447618;32;20614;-54
2021/09/26 11:50:32;;;;;;;8.13;3.53;;;;;;;;;;4447618;32;20651;-54
2021/09/26 11:52:59;;;;;;;6.30;2.62;;;;;;;;;;4447200;32;20228;-54
2021/09/26 11:55:28;;;;;;;3.58;2.10;;;;;;;;;;4446771;32;20564;-54
2021/09/26 11:57:58;;;;;;;6.62;2.53;;;;;;;;;;4446761;32;20510;-55
2021/09/26 12:00:29;;;;;;;4.22;2.70;;;;;;;;;;4445405;32;20358;-55
2021/09/26 12:02:55;;;;;;;2.72;2.28;;;;;;;;;;4431148;32;20221;-55
2021/09/26 12:05:37;;;;;;;4.70;2.40;;;;;;;;;;4430392;32;20638;-55
2021/09/26 12:08:04;;;;;;;3.92;2.62;;;;;;;;;;4431747;32;20249;-55
2021/09/26 12:10:30;;;;;;;4.12;2.22;;;;;;;;;;4434013;32;20649;-55
2021/09/26 12:12:55;;;;;;;4.03;2.53;;;;;;;;;;4435188;32;20302;-56
2021/09/26 12:15:25;;;;;;;4.45;2.50;;;;;;;;;;4435019;32;20220;-55
2021/09/26 12:17:55;;;;;;;3.87;2.70;;;;;;;;;;4434959;32;20348;-55
2021/09/26 12:20:21;;;;;;;4.10;2.78;;;;;;;;;;4438088;32;20316;-55
2021/09/26 12:22:47;;;;;;;5.50;3.20;;;;;;;;;;4449035;32;20296;-55
2021/09/26 12:25:23;;;;;;;4.45;2.55;;;;;;;;;;4450372;32;20784;-55
2021/09/26 12:27:50;;;;;;;3.87;2.37;;;;;;;;;;4450605;32;20196;-54
2021/09/26 12:30:23;;;;;;;5.25;2.40;;;;;;;;;;4450422;32;20228;-54
2021/09/26 12:32:58;;;;;;;3.37;2.22;;;;;;;;;;4450112;32;20222;-54
2021/09/26 12:35:51;;;;;;;3.45;2.15;;;;;;;;;;4448741;32;20323;-54
2021/09/26 12:38:48;;;;;;;4.93;2.67;;;;;;;;;;4450163;32;20677;-55
2021/09/26 12:41:20;;;;;;;6.07;3.45;;;;;;;;;;4449590;32;20256;-55
2021/09/26 12:43:50;;;;;;;4.22;2.53;;;;;;;;;;4450199;32;20351;-55
2021/09/26 12:46:19;;;;;;;3.42;2.10;;;;;;;;;;4449818;32;20228;-55
2021/09/26 12:48:47;;;;;;;6.75;2.67;;;;;;;;;;4449647;32;20228;-55
2021/09/26 12:51:38;;;;;;;6.80;2.92;;;;;;;;;;4448660;32;20258;-55
2021/09/26 12:54:05;;;;;;;6.18;2.92;;;;;;;;;;4450126;32;20643;-54
2021/09/26 12:56:41;;;;;;;5.10;2.50;;;;;;;;;;4449846;32;20641;-54
2021/09/26 12:59:29;;;;;;;3.35;2.30;;;;;;;;;;4449636;32;20697;-55
2021/09/26 13:02:09;;;;;;;5.93;2.50;;;;;;;;;;4449200;32;20225;-54
2021/09/26 13:04:35;;;;;;;3.33;2.72;;;;;;;;;;4450005;32;20212;-54
2021/09/26 13:07:02;;;;;;;4.03;2.62;;;;;;;;;;4449253;32;20341;-55
2021/09/26 13:09:35;;;;;;;2.95;1.95;;;;;;;;;;4448777;32;20266;-55
2021/09/26 13:12:39;;;;;;;3.08;2.28;;;;;;;;;;4447468;32;20363;-55
2021/09/26 13:15:14;;;;;;;3.33;2.35;;;;;;;;;;4449371;32;20602;-55
2021/09/26 13:17:42;;;;;;;4.82;2.62;;;;;;;;;;4449483;32;20881;-55
2021/09/26 13:20:13;;;;;;;3.08;2.45;;;;;;;;;;4449100;32;20290;-54
2021/09/26 13:22:39;;;;;;;4.37;2.60;;;;;;;;;;4449146;32;20268;-54
2021/09/26 13:25:07;;;;;;;4.90;2.83;;;;;;;;;;4449239;32;20303;-54
2021/09/26 13:27:38;;;;;;;4.22;2.83;;;;;;;;;;4448796;32;20228;-54
2021/09/26 13:30:29;;;;;;;6.35;2.37;;;;;;;;;;4449100;32;20330;-54
2021/09/26 13:33:19;;;;;;;4.60;2.90;;;;;;;;;;4441802;32;20241;-56
2021/09/26 13:35:46;;;;;;;4.65;2.53;;;;;;;;;;4449165;32;20297;-55
2021/09/26 13:38:12;;;;;;;8.57;2.97;;;;;;;;;;4449489;32;20613;-56
2021/09/26 13:40:41;;;;;;;2.78;2.22;;;;;;;;;;4449163;32;20755;-55
2021/09/26 13:43:08;;;;;;;2.97;2.10;;;;;;;;;;4448998;32;20205;-55
2021/09/26 13:45:35;;;;;;;4.50;2.53;;;;;;;;;;4449417;32;20274;-54
2021/09/26 13:48:03;;;;;;;4.37;2.37;;;;;;;;;;4449316;32;20219;-55
2021/09/26 13:50:28;;;;;;;6.37;2.37;;;;;;;;;;4449276;32;20261;-55
2021/09/26 13:52:54;;;;;;;2.17;1.83;;;;;;;;;;4449473;32;20630;-55
2021/09/26 13:55:19;;;;;;;4.62;3.12;;;;;;;;;;4448829;32;20231;-54
2021/09/26 13:57:45;;;;;;;6.05;2.87;;;;;;;;;;4447658;32;20249;-54
2021/09/26 14:00:13;;;;;;;3.05;2.17;;;;;;;;;;4448610;32;20321;-54
2021/09/26 14:02:39;;;;;;;6.18;3.20;;;;;;;;;;4436559;32;20205;-54
2021/09/26 14:05:06;;;;;;;6.37;2.28;;;;;;;;;;4433315;32;20808;-55
2021/09/26 14:07:31;;;;;;;3.08;2.50;;;;;;;;;;4433572;32;20284;-55
2021/09/26 14:09:57;;;;;;;4.30;2.45;;;;;;;;;;4433348;32;20569;-55
2021/09/26 14:12:22;;;;;;;3.00;2.30;;;;;;;;;;4433323;32;20237;-55
2021/09/26 14:14:49;;;;;;;3.25;2.42;;;;;;;;;;4447218;32;20377;-55
2021/09/26 14:17:16;;;;;;;3.35;2.35;;;;;;;;;;4448660;32;20247;-54
2021/09/26 14:19:42;;;;;;;4.25;2.03;;;;;;;;;;4448312;32;20283;-55
2021/09/26 14:22:09;;;;;;;9.35;3.17;;;;;;;;;;4448653;32;20256;-54
2021/09/26 14:24:35;;;;;;;3.55;2.60;;;;;;;;;;4448892;32;20223;-54
2021/09/26 14:27:01;;;;;;;6.45;2.60;;;;;;;;;;4447760;32;20335;-54
2021/09/26 14:29:27;;;;;;;4.82;2.42;;;;;;;;;;4446441;32;20275;-56
2021/09/26 14:31:54;;;;;;;6.70;2.87;;;;;;;;;;4445661;32;20224;-54
2021/09/26 14:34:22;;;;;;;6.85;3.03;;;;;;;;;;4445975;32;20244;-54
2021/09/26 14:36:48;;;;;;;3.35;2.30;;;;;;;;;;4446305;32;20225;-54
2021/09/26 14:39:14;;;;;;;6.37;2.35;;;;;;;;;;4446384;32;20297;-55